Time,TemperatureF,DewpointF,PressureIn,WindDirection,WindDirectionDegrees,WindSpeedMPH,WindSpeedGustMPH,Humidity,HourlyPrecipIn,Conditions,Clouds,dailyrainin,SoftwareType,DateUTC
2013-02-21 00:03:00,25.3,13.5,22.92,SSE,158,2.0,2.0,60,0.00,,,0.00,meteohub,2013-02-21 07:03:00,
2013-02-21 00:08:00,25.2,13.6,22.92,South,180,2.0,4.0,61,0.00,,,0.00,meteohub,2013-02-21 07:08:00,
2013-02-21 00:13:00,25.0,13.8,22.92,NW,315,1.0,4.0,62,0.00,,,0.00,meteohub,2013-02-21 07:13:00,
2013-02-21 00:18:00,25.0,13.8,22.92,SW,225,2.0,2.0,62,0.00,,,0.00,meteohub,2013-02-21 07:18:00,
2013-02-21 00:23:00,24.8,13.6,22.92,South,180,2.0,2.0,62,0.00,,,0.00,meteohub,2013-02-21 07:23:00,
2013-02-21 00:28:00,24.6,13.8,22.92,WSW,248,2.0,3.0,63,0.00,,,0.00,meteohub,2013-02-21 07:28:00,
2013-02-21 00:33:00,24.4,13.6,22.92,SW,225,1.0,3.0,63,0.00,,,0.00,meteohub,2013-02-21 07:33:00,
2013-02-21 00:38:00,24.3,13.5,22.92,SE,135,0.0,3.0,63,0.00,,,0.00,meteohub,2013-02-21 07:38:00,
2013-02-21 00:43:00,24.1,13.3,22.92,NE,45,0.0,2.0,63,0.00,,,0.00,meteohub,2013-02-21 07:43:00,
2013-02-21 00:49:00,24.1,13.3,22.92,SW,225,0.0,2.0,63,0.00,,,0.00,meteohub,2013-02-21 07:49:00,
2013-02-21 00:54:00,23.9,13.1,22.92,South,180,0.0,1.0,63,0.00,,,0.00,meteohub,2013-02-21 07:54:00,
2013-02-21 00:59:00,23.9,13.1,22.92,North,0,0.0,1.0,63,0.00,,,0.00,meteohub,2013-02-21 07:59:00,
2013-02-21 01:04:00,23.9,13.1,22.92,SE,135,0.0,1.0,63,0.00,,,0.00,meteohub,2013-02-21 08:04:00,
2013-02-21 01:09:00,24.1,12.2,22.92,South,180,1.0,1.0,60,0.00,,,0.00,meteohub,2013-02-21 08:09:00,
2013-02-21 01:14:00,24.3,12.0,22.92,South,180,0.0,1.0,59,0.00,,,0.00,meteohub,2013-02-21 08:14:00,
2013-02-21 01:19:00,24.3,11.7,22.92,South,180,1.0,1.0,58,0.00,,,0.00,meteohub,2013-02-21 08:19:00,
2013-02-21 01:24:00,24.3,11.3,22.93,SE,135,3.0,3.0,57,0.00,,,0.00,meteohub,2013-02-21 08:24:00,
2013-02-21 01:29:00,24.1,11.1,22.92,NE,45,2.0,3.0,57,0.00,,,0.00,meteohub,2013-02-21 08:29:00,
2013-02-21 01:34:00,23.9,10.9,22.93,North,0,2.0,3.0,57,0.00,,,0.00,meteohub,2013-02-21 08:34:00,
2013-02-21 01:39:00,23.7,11.5,22.93,NE,45,3.0,3.0,59,0.00,,,0.00,meteohub,2013-02-21 08:39:00,
2013-02-21 01:44:00,23.4,11.5,22.93,SSE,158,1.0,3.0,60,0.00,,,0.00,meteohub,2013-02-21 08:44:00,
2013-02-21 01:50:00,23.2,11.7,22.93,South,180,2.0,3.0,61,0.00,,,0.00,meteohub,2013-02-21 08:50:00,
2013-02-21 01:55:00,23.0,11.8,22.93,SW,225,3.0,3.0,62,0.00,,,0.00,meteohub,2013-02-21 08:55:00,
2013-02-21 02:00:00,22.6,12.4,22.93,SW,225,1.0,3.0,64,0.00,,,0.00,meteohub,2013-02-21 09:00:00,
2013-02-21 02:05:00,22.5,12.2,22.93,South,180,3.0,3.0,64,0.00,,,0.00,meteohub,2013-02-21 09:05:00,
2013-02-21 02:10:00,22.1,11.8,22.94,SE,135,1.0,3.0,64,0.00,,,0.00,meteohub,2013-02-21 09:10:00,
2013-02-21 02:15:00,21.9,12.0,22.94,SE,135,2.0,3.0,65,0.00,,,0.00,meteohub,2013-02-21 09:15:00,
2013-02-21 02:20:00,21.9,12.0,22.94,South,180,2.0,3.0,65,0.00,,,0.00,meteohub,2013-02-21 09:20:00,
2013-02-21 02:25:00,21.7,11.8,22.94,NW,315,1.0,3.0,65,0.00,,,0.00,meteohub,2013-02-21 09:25:00,
2013-02-21 02:30:00,21.7,11.8,22.94,North,0,3.0,3.0,65,0.00,,,0.00,meteohub,2013-02-21 09:30:00,
2013-02-21 02:35:00,21.4,11.5,22.94,South,180,1.0,3.0,65,0.00,,,0.00,meteohub,2013-02-21 09:35:00,
2013-02-21 02:40:00,21.4,11.5,22.94,South,180,1.0,3.0,65,0.00,,,0.00,meteohub,2013-02-21 09:40:00,
2013-02-21 02:46:00,21.4,11.5,22.94,SW,225,1.0,3.0,65,0.00,,,0.00,meteohub,2013-02-21 09:46:00,
2013-02-21 02:51:00,21.4,11.5,22.94,SW,225,1.0,2.0,65,0.00,,,0.00,meteohub,2013-02-21 09:51:00,
2013-02-21 02:56:00,21.2,11.3,22.94,SW,225,2.0,2.0,65,0.00,,,0.00,meteohub,2013-02-21 09:56:00,
2013-02-21 03:01:00,21.2,11.3,22.94,SSW,203,2.0,2.0,65,0.00,,,0.00,meteohub,2013-02-21 10:01:00,
2013-02-21 03:06:00,21.2,11.3,22.94,SSW,203,2.0,2.0,65,0.00,,,0.00,meteohub,2013-02-21 10:06:00,
2013-02-21 03:11:00,20.7,11.1,22.94,NW,315,1.0,2.0,66,0.00,,,0.00,meteohub,2013-02-21 10:11:00,
2013-02-21 03:16:00,20.3,10.8,22.94,SW,225,2.0,2.0,66,0.00,,,0.00,meteohub,2013-02-21 10:16:00,
2013-02-21 03:21:00,20.3,11.1,22.94,SE,135,1.0,2.0,67,0.00,,,0.00,meteohub,2013-02-21 10:21:00,
2013-02-21 03:26:00,20.1,10.9,22.94,SW,225,0.0,2.0,67,0.00,,,0.00,meteohub,2013-02-21 10:26:00,
2013-02-21 03:31:00,19.9,10.8,22.94,North,0,0.0,2.0,67,0.00,,,0.00,meteohub,2013-02-21 10:31:00,
2013-02-21 03:37:00,19.8,10.2,22.94,North,0,2.0,2.0,66,0.00,,,0.00,meteohub,2013-02-21 10:37:00,
2013-02-21 03:42:00,19.4,9.9,22.94,North,0,0.0,2.0,66,0.00,,,0.00,meteohub,2013-02-21 10:42:00,
2013-02-21 03:47:00,19.0,8.2,22.94,North,0,0.0,2.0,62,0.00,,,0.00,meteohub,2013-02-21 10:47:00,
2013-02-21 03:52:00,18.7,7.9,22.95,North,0,0.0,2.0,62,0.00,,,0.00,meteohub,2013-02-21 10:52:00,
2013-02-21 03:57:00,18.5,7.7,22.95,North,0,0.0,2.0,62,0.00,,,0.00,meteohub,2013-02-21 10:57:00,
2013-02-21 04:02:00,18.5,7.7,22.95,North,0,0.0,1.0,62,0.00,,,0.00,meteohub,2013-02-21 11:02:00,
2013-02-21 04:07:00,18.5,7.7,22.94,North,0,2.0,0.0,62,0.00,,,0.00,meteohub,2013-02-21 11:07:00,
2013-02-21 04:12:00,18.7,7.9,22.95,NE,45,2.0,2.0,62,0.00,,,0.00,meteohub,2013-02-21 11:12:00,
2013-02-21 04:17:00,18.9,8.1,22.95,NE,45,2.0,2.0,62,0.00,,,0.00,meteohub,2013-02-21 11:17:00,
2013-02-21 04:22:00,19.0,8.6,22.95,NE,45,0.0,2.0,63,0.00,,,0.00,meteohub,2013-02-21 11:22:00,
2013-02-21 04:27:00,19.2,8.8,22.95,SW,225,1.0,2.0,63,0.00,,,0.00,meteohub,2013-02-21 11:27:00,
2013-02-21 04:32:00,19.6,10.4,22.95,South,180,1.0,2.0,67,0.00,,,0.00,meteohub,2013-02-21 11:32:00,
2013-02-21 04:37:00,19.6,10.4,22.95,NNW,338,2.0,2.0,67,0.00,,,0.00,meteohub,2013-02-21 11:37:00,
2013-02-21 04:42:00,19.4,10.2,22.95,SW,225,1.0,3.0,67,0.00,,,0.00,meteohub,2013-02-21 11:42:00,
2013-02-21 04:47:00,19.4,10.2,22.95,NE,45,0.0,3.0,67,0.00,,,0.00,meteohub,2013-02-21 11:47:00,
2013-02-21 04:52:00,19.4,10.2,22.96,SW,225,0.0,2.0,67,0.00,,,0.00,meteohub,2013-02-21 11:52:00,
2013-02-21 04:57:00,19.6,10.4,22.96,NE,45,2.0,2.0,67,0.00,,,0.00,meteohub,2013-02-21 11:57:00,
2013-02-21 05:02:00,19.6,10.0,22.96,NW,315,1.0,2.0,66,0.00,,,0.00,meteohub,2013-02-21 12:02:00,
2013-02-21 05:07:00,19.6,10.0,22.96,NW,315,1.0,2.0,66,0.00,,,0.00,meteohub,2013-02-21 12:07:00,
2013-02-21 05:12:00,19.6,10.0,22.96,SW,225,1.0,2.0,66,0.00,,,0.00,meteohub,2013-02-21 12:12:00,
2013-02-21 05:17:00,19.6,10.0,22.96,SW,225,1.0,2.0,66,0.00,,,0.00,meteohub,2013-02-21 12:17:00,
2013-02-21 05:22:00,19.6,10.0,22.97,NE,45,2.0,2.0,66,0.00,,,0.00,meteohub,2013-02-21 12:22:00,
2013-02-21 05:27:00,19.6,10.0,22.97,SE,135,1.0,2.0,66,0.00,,,0.00,meteohub,2013-02-21 12:27:00,
2013-02-21 05:32:00,19.6,10.0,22.97,SW,225,1.0,2.0,66,0.00,,,0.00,meteohub,2013-02-21 12:32:00,
2013-02-21 05:37:00,19.4,9.9,22.97,South,180,1.0,2.0,66,0.00,,,0.00,meteohub,2013-02-21 12:37:00,
2013-02-21 05:42:00,19.4,9.9,22.97,South,180,0.0,2.0,66,0.00,,,0.00,meteohub,2013-02-21 12:42:00,
2013-02-21 05:47:00,19.4,9.9,22.97,South,180,1.0,2.0,66,0.00,,,0.00,meteohub,2013-02-21 12:47:00,
2013-02-21 05:52:00,19.4,9.9,22.97,South,180,0.0,2.0,66,0.00,,,0.00,meteohub,2013-02-21 12:52:00,
2013-02-21 05:57:00,19.2,8.4,22.97,SW,225,0.0,1.0,62,0.00,,,0.00,meteohub,2013-02-21 12:57:00,
2013-02-21 06:02:00,19.0,8.2,22.97,West,270,0.0,1.0,62,0.00,,,0.00,meteohub,2013-02-21 13:02:00,
2013-02-21 06:07:00,19.0,8.2,22.98,SE,135,1.0,2.0,62,0.00,,,0.00,meteohub,2013-02-21 13:07:00,
2013-02-21 06:12:00,18.9,8.1,22.98,South,180,0.0,2.0,62,0.00,,,0.00,meteohub,2013-02-21 13:12:00,
2013-02-21 06:17:00,18.7,7.9,22.98,SE,135,1.0,2.0,62,0.00,,,0.00,meteohub,2013-02-21 13:17:00,
2013-02-21 06:22:00,18.5,7.7,22.98,South,180,1.0,2.0,62,0.00,,,0.00,meteohub,2013-02-21 13:22:00,
2013-02-21 06:27:00,18.5,7.7,22.98,South,180,2.0,2.0,62,0.00,,,0.00,meteohub,2013-02-21 13:27:00,
2013-02-21 06:32:00,18.3,7.5,22.98,SE,135,0.0,2.0,62,0.00,,,0.00,meteohub,2013-02-21 13:32:00,
2013-02-21 06:37:00,18.1,7.3,22.98,South,180,1.0,2.0,62,0.00,,,0.00,meteohub,2013-02-21 13:37:00,
2013-02-21 06:42:00,18.0,7.5,22.99,South,180,1.0,2.0,63,0.00,,,0.00,meteohub,2013-02-21 13:42:00,
2013-02-21 06:47:00,18.0,7.5,22.98,South,180,2.0,2.0,63,0.00,,,0.00,meteohub,2013-02-21 13:47:00,
2013-02-21 06:52:00,17.8,7.3,22.99,SW,225,2.0,2.0,63,0.00,,,0.00,meteohub,2013-02-21 13:52:00,
2013-02-21 06:57:00,17.8,7.3,22.99,South,180,2.0,2.0,63,0.00,,,0.00,meteohub,2013-02-21 13:57:00,
2013-02-21 07:02:00,17.8,7.3,22.99,South,180,2.0,2.0,63,0.00,,,0.00,meteohub,2013-02-21 14:02:00,
2013-02-21 07:07:00,17.8,7.3,22.99,South,180,2.0,2.0,63,0.00,,,0.00,meteohub,2013-02-21 14:07:00,
2013-02-21 07:12:00,17.6,7.5,23.00,South,180,0.0,2.0,64,0.00,,,0.00,meteohub,2013-02-21 14:12:00,
2013-02-21 07:17:00,17.6,7.5,23.00,SW,225,0.0,2.0,64,0.00,,,0.00,meteohub,2013-02-21 14:17:00,
2013-02-21 07:22:00,17.6,7.5,23.00,South,180,2.0,2.0,64,0.00,,,0.00,meteohub,2013-02-21 14:22:00,
2013-02-21 07:27:00,17.8,7.7,23.00,South,180,0.0,2.0,64,0.00,,,0.00,meteohub,2013-02-21 14:27:00,
2013-02-21 07:32:00,17.8,7.7,23.00,South,180,0.0,2.0,64,0.00,,,0.00,meteohub,2013-02-21 14:32:00,
2013-02-21 07:37:00,18.0,7.9,23.00,South,180,1.0,2.0,64,0.00,,,0.00,meteohub,2013-02-21 14:37:00,
2013-02-21 07:42:00,18.0,8.2,23.00,SW,225,1.0,1.0,65,0.00,,,0.00,meteohub,2013-02-21 14:42:00,
2013-02-21 07:47:00,18.1,8.1,23.01,SE,135,1.0,1.0,64,0.00,,,0.00,meteohub,2013-02-21 14:47:00,
2013-02-21 07:52:00,18.1,8.1,23.01,NW,315,1.0,2.0,64,0.00,,,0.00,meteohub,2013-02-21 14:52:00,
2013-02-21 07:57:00,18.1,8.1,23.01,SE,135,2.0,2.0,64,0.00,,,0.00,meteohub,2013-02-21 14:57:00,
2013-02-21 08:02:00,18.1,8.1,23.01,SW,225,2.0,2.0,64,0.00,,,0.00,meteohub,2013-02-21 15:02:00,
2013-02-21 08:07:00,18.3,8.2,23.02,South,180,0.0,2.0,64,0.00,,,0.00,meteohub,2013-02-21 15:07:00,
2013-02-21 08:12:00,18.7,8.6,23.02,West,270,1.0,2.0,64,0.00,,,0.00,meteohub,2013-02-21 15:12:00,
2013-02-21 08:17:00,19.0,9.0,23.02,SW,225,1.0,2.0,64,0.00,,,0.00,meteohub,2013-02-21 15:17:00,
2013-02-21 08:22:00,19.2,9.0,23.02,NW,315,0.0,2.0,64,0.00,,,0.00,meteohub,2013-02-21 15:22:00,
2013-02-21 08:27:00,19.8,10.9,23.02,South,180,0.0,2.0,68,0.00,,,0.00,meteohub,2013-02-21 15:27:00,
2013-02-21 08:32:00,21.4,12.2,23.03,South,180,0.0,2.0,67,0.00,,,0.00,meteohub,2013-02-21 15:32:00,
2013-02-21 08:37:00,21.9,12.4,23.03,South,180,2.0,0.0,66,0.00,,,0.00,meteohub,2013-02-21 15:37:00,
2013-02-21 08:42:00,21.4,11.1,23.03,South,180,2.0,2.0,64,0.00,,,0.00,meteohub,2013-02-21 15:42:00,
2013-02-21 08:47:00,21.0,11.1,23.03,South,180,1.0,2.0,65,0.00,,,0.00,meteohub,2013-02-21 15:47:00,
2013-02-21 08:52:00,20.7,10.4,23.03,SW,225,2.0,2.0,64,0.00,,,0.00,meteohub,2013-02-21 15:52:00,
2013-02-21 08:57:00,20.3,10.0,23.03,West,270,1.0,2.0,64,0.00,,,0.00,meteohub,2013-02-21 15:57:00,
2013-02-21 09:02:00,20.3,10.4,23.03,SW,225,0.0,2.0,65,0.00,,,0.00,meteohub,2013-02-21 16:02:00,
2013-02-21 09:07:00,20.3,10.4,23.03,SW,225,0.0,2.0,65,0.00,,,0.00,meteohub,2013-02-21 16:07:00,
2013-02-21 09:12:00,21.2,10.9,23.03,South,180,1.0,1.0,64,0.00,,,0.00,meteohub,2013-02-21 16:12:00,
2013-02-21 09:17:00,21.4,10.8,23.04,SE,135,0.0,2.0,63,0.00,,,0.00,meteohub,2013-02-21 16:17:00,
2013-02-21 09:22:00,21.6,10.6,23.03,South,180,1.0,2.0,62,0.00,,,0.00,meteohub,2013-02-21 16:22:00,
2013-02-21 09:27:00,21.7,10.8,23.04,SW,225,0.0,2.0,62,0.00,,,0.00,meteohub,2013-02-21 16:27:00,
2013-02-21 09:32:00,22.3,11.3,23.04,South,180,1.0,2.0,62,0.00,,,0.00,meteohub,2013-02-21 16:32:00,
2013-02-21 09:37:00,23.5,11.7,23.04,South,180,1.0,2.0,60,0.00,,,0.00,meteohub,2013-02-21 16:37:00,
2013-02-21 09:42:00,25.7,12.6,23.04,South,180,1.0,2.0,57,0.00,,,0.00,meteohub,2013-02-21 16:42:00,
2013-02-21 09:47:00,26.8,12.0,23.04,SE,135,2.0,2.0,53,0.00,,,0.00,meteohub,2013-02-21 16:47:00,
2013-02-21 09:52:00,27.5,11.7,23.04,West,270,0.0,2.0,51,0.00,,,0.00,meteohub,2013-02-21 16:52:00,
2013-02-21 09:57:00,29.3,15.1,23.04,South,180,2.0,2.0,55,0.00,,,0.00,meteohub,2013-02-21 16:57:00,
2013-02-21 10:02:00,29.5,14.0,23.04,South,180,2.0,2.0,52,0.00,,,0.00,meteohub,2013-02-21 17:02:00,
2013-02-21 10:07:00,28.2,10.0,23.04,NNW,338,4.0,4.0,46,0.00,,,0.00,meteohub,2013-02-21 17:07:00,
2013-02-21 10:12:00,27.1,8.6,23.04,South,180,3.0,4.0,45,0.00,,,0.00,meteohub,2013-02-21 17:12:00,
2013-02-21 10:17:00,27.1,8.6,23.05,SE,135,2.0,4.0,45,0.00,,,0.00,meteohub,2013-02-21 17:17:00,
2013-02-21 10:22:00,28.2,10.0,23.05,South,180,2.0,4.0,46,0.00,,,0.00,meteohub,2013-02-21 17:22:00,
2013-02-21 10:27:00,29.1,11.8,23.05,West,270,2.0,3.0,48,0.00,,,0.00,meteohub,2013-02-21 17:27:00,
2013-02-21 10:32:00,30.0,12.7,23.05,South,180,3.0,3.0,48,0.00,,,0.00,meteohub,2013-02-21 17:32:00,
2013-02-21 10:37:00,30.2,11.8,23.05,SW,225,2.0,4.0,46,0.00,,,0.00,meteohub,2013-02-21 17:37:00,
2013-02-21 10:42:00,30.0,12.2,23.05,South,180,2.0,4.0,47,0.00,,,0.00,meteohub,2013-02-21 17:42:00,
2013-02-21 10:47:00,29.7,11.5,23.05,South,180,2.0,4.0,46,0.00,,,0.00,meteohub,2013-02-21 17:47:00,
2013-02-21 10:52:00,28.6,10.9,23.05,South,180,2.0,2.0,47,0.00,,,0.00,meteohub,2013-02-21 17:52:00,
2013-02-21 10:57:00,28.0,8.4,23.05,SE,135,1.0,3.0,43,0.00,,,0.00,meteohub,2013-02-21 17:57:00,
2013-02-21 11:02:00,28.2,9.1,23.05,SW,225,2.0,3.0,44,0.00,,,0.00,meteohub,2013-02-21 18:02:00,
2013-02-21 11:07:00,28.2,9.1,23.05,SW,225,2.0,3.0,44,0.00,,,0.00,meteohub,2013-02-21 18:07:00,
2013-02-21 11:12:00,29.7,11.8,23.05,SE,135,2.0,2.0,47,0.00,,,0.00,meteohub,2013-02-21 18:12:00,
2013-02-21 11:17:00,28.9,10.8,23.05,South,180,2.0,2.0,46,0.00,,,0.00,meteohub,2013-02-21 18:17:00,
2013-02-21 11:22:00,29.1,10.9,23.05,South,180,2.0,2.0,46,0.00,,,0.00,meteohub,2013-02-21 18:22:00,
2013-02-21 11:27:00,29.8,11.7,23.05,SE,135,1.0,2.0,46,0.00,,,0.00,meteohub,2013-02-21 18:27:00,
2013-02-21 11:32:00,29.7,11.5,23.05,SW,225,0.0,2.0,46,0.00,,,0.00,meteohub,2013-02-21 18:32:00,
2013-02-21 11:37:00,29.8,11.7,23.05,NW,315,0.0,3.0,46,0.00,,,0.00,meteohub,2013-02-21 18:37:00,
2013-02-21 11:42:00,29.8,11.7,23.05,South,180,2.0,3.0,46,0.00,,,0.00,meteohub,2013-02-21 18:42:00,
2013-02-21 11:47:00,29.3,11.5,23.05,South,180,1.0,3.0,47,0.00,,,0.00,meteohub,2013-02-21 18:47:00,
2013-02-21 11:52:00,29.5,12.2,23.05,SW,225,0.0,2.0,48,0.00,,,0.00,meteohub,2013-02-21 18:52:00,
2013-02-21 11:57:00,29.8,12.6,23.05,South,180,1.0,2.0,48,0.00,,,0.00,meteohub,2013-02-21 18:57:00,
2013-02-21 12:02:00,30.6,12.2,23.05,West,270,2.0,2.0,46,0.00,,,0.00,meteohub,2013-02-21 19:02:00,
2013-02-21 12:07:00,30.4,12.0,23.05,East,90,2.0,3.0,46,0.00,,,0.00,meteohub,2013-02-21 19:07:00,
2013-02-21 12:12:00,30.0,12.2,23.05,NW,315,1.0,3.0,47,0.00,,,0.00,meteohub,2013-02-21 19:12:00,
2013-02-21 12:17:00,29.1,10.9,23.05,West,270,3.0,3.0,46,0.00,,,0.00,meteohub,2013-02-21 19:17:00,
2013-02-21 12:22:00,28.8,11.1,23.05,South,180,1.0,3.0,47,0.00,,,0.00,meteohub,2013-02-21 19:22:00,
2013-02-21 12:27:00,28.6,10.9,23.05,SW,225,1.0,3.0,47,0.00,,,0.00,meteohub,2013-02-21 19:27:00,
2013-02-21 12:32:00,28.8,10.6,23.05,SW,225,1.0,4.0,46,0.00,,,0.00,meteohub,2013-02-21 19:32:00,
2013-02-21 12:37:00,29.1,10.9,23.04,NW,315,1.0,4.0,46,0.00,,,0.00,meteohub,2013-02-21 19:37:00,
2013-02-21 12:42:00,29.8,11.1,23.04,SW,225,1.0,2.0,45,0.00,,,0.00,meteohub,2013-02-21 19:42:00,
2013-02-21 12:47:00,29.8,11.1,23.04,East,90,2.0,3.0,45,0.00,,,0.00,meteohub,2013-02-21 19:47:00,
2013-02-21 12:52:00,30.0,11.3,23.04,SSW,203,2.0,3.0,45,0.00,,,0.00,meteohub,2013-02-21 19:52:00,
2013-02-21 12:57:00,29.7,10.9,23.04,SW,225,2.0,2.0,45,0.00,,,0.00,meteohub,2013-02-21 19:57:00,
2013-02-21 13:02:00,28.9,10.8,23.04,SW,225,2.0,4.0,46,0.00,,,0.00,meteohub,2013-02-21 20:02:00,
2013-02-21 13:07:00,28.9,10.8,23.04,SW,225,2.0,4.0,46,0.00,,,0.00,meteohub,2013-02-21 20:07:00,
2013-02-21 13:12:00,28.0,7.9,23.04,NE,45,3.0,4.0,42,0.00,,,0.00,meteohub,2013-02-21 20:12:00,
2013-02-21 13:17:00,27.9,7.7,23.04,South,180,2.0,3.0,42,0.00,,,0.00,meteohub,2013-02-21 20:17:00,
2013-02-21 13:22:00,27.5,7.9,23.04,North,0,2.0,3.0,43,0.00,,,0.00,meteohub,2013-02-21 20:22:00,
2013-02-21 13:27:00,27.7,8.6,23.03,South,180,1.0,3.0,44,0.00,,,0.00,meteohub,2013-02-21 20:27:00,
2013-02-21 13:32:00,27.9,8.8,23.04,SW,225,2.0,3.0,44,0.00,,,0.00,meteohub,2013-02-21 20:32:00,
2013-02-21 13:37:00,27.9,8.8,23.04,SW,225,2.0,3.0,44,0.00,,,0.00,meteohub,2013-02-21 20:37:00,
2013-02-21 13:42:00,27.7,8.1,23.03,South,180,2.0,3.0,43,0.00,,,0.00,meteohub,2013-02-21 20:42:00,
2013-02-21 13:47:00,27.5,8.4,23.03,SSE,158,2.0,3.0,44,0.00,,,0.00,meteohub,2013-02-21 20:47:00,
2013-02-21 13:52:00,27.7,8.6,23.03,NW,315,1.0,3.0,44,0.00,,,0.00,meteohub,2013-02-21 20:52:00,
2013-02-21 13:57:00,27.7,8.6,23.04,SW,225,2.0,4.0,44,0.00,,,0.00,meteohub,2013-02-21 20:57:00,
2013-02-21 14:02:00,27.3,7.7,23.04,South,180,3.0,4.0,43,0.00,,,0.00,meteohub,2013-02-21 21:02:00,
2013-02-21 14:07:00,27.1,7.5,23.04,SW,225,1.0,6.0,43,0.00,,,0.00,meteohub,2013-02-21 21:07:00,
2013-02-21 14:12:00,27.3,7.7,23.04,SE,135,2.0,6.0,43,0.00,,,0.00,meteohub,2013-02-21 21:12:00,
2013-02-21 14:17:00,27.7,8.6,23.04,SW,225,1.0,6.0,44,0.00,,,0.00,meteohub,2013-02-21 21:17:00,
2013-02-21 14:22:00,27.9,8.2,23.04,SW,225,2.0,2.0,43,0.00,,,0.00,meteohub,2013-02-21 21:22:00,
2013-02-21 14:27:00,27.5,7.9,23.04,South,180,2.0,3.0,43,0.00,,,0.00,meteohub,2013-02-21 21:27:00,
2013-02-21 14:32:00,27.1,7.5,23.04,South,180,2.0,3.0,43,0.00,,,0.00,meteohub,2013-02-21 21:32:00,
2013-02-21 14:37:00,27.0,7.5,23.04,South,180,2.0,3.0,43,0.00,,,0.00,meteohub,2013-02-21 21:37:00,
2013-02-21 14:42:00,27.1,8.1,23.04,SSW,203,2.0,3.0,44,0.00,,,0.00,meteohub,2013-02-21 21:42:00,
2013-02-21 14:47:00,27.5,8.4,23.04,SSW,203,3.0,3.0,44,0.00,,,0.00,meteohub,2013-02-21 21:47:00,
2013-02-21 14:52:00,27.3,7.7,23.04,South,180,2.0,3.0,43,0.00,,,0.00,meteohub,2013-02-21 21:52:00,
2013-02-21 14:57:00,27.0,7.0,23.04,SE,135,2.0,3.0,42,0.00,,,0.00,meteohub,2013-02-21 21:57:00,
2013-02-21 15:02:00,26.6,6.6,23.05,SW,225,1.0,3.0,42,0.00,,,0.00,meteohub,2013-02-21 22:02:00,
2013-02-21 15:07:00,26.6,6.6,23.04,SW,225,1.0,3.0,42,0.00,,,0.00,meteohub,2013-02-21 22:07:00,
2013-02-21 15:12:00,25.9,7.0,23.05,SSE,158,2.0,2.0,44,0.00,,,0.00,meteohub,2013-02-21 22:12:00,
2013-02-21 15:17:00,25.7,6.8,23.05,East,90,2.0,2.0,44,0.00,,,0.00,meteohub,2013-02-21 22:17:00,
2013-02-21 15:22:00,25.5,6.1,23.05,SE,135,2.0,2.0,43,0.00,,,0.00,meteohub,2013-02-21 22:22:00,
2013-02-21 15:27:00,25.3,6.4,23.05,SSE,158,2.0,3.0,44,0.00,,,0.00,meteohub,2013-02-21 22:27:00,
2013-02-21 15:32:00,25.3,6.4,23.05,South,180,2.0,3.0,44,0.00,,,0.00,meteohub,2013-02-21 22:32:00,
2013-02-21 15:37:00,25.5,6.6,23.05,SSE,158,2.0,4.0,44,0.00,,,0.00,meteohub,2013-02-21 22:37:00,
2013-02-21 15:42:00,25.7,6.3,23.05,SW,225,2.0,4.0,43,0.00,,,0.00,meteohub,2013-02-21 22:42:00,
2013-02-21 15:47:00,25.5,6.1,23.05,SSE,158,2.0,4.0,43,0.00,,,0.00,meteohub,2013-02-21 22:47:00,
2013-02-21 15:52:00,25.3,6.4,23.05,South,180,2.0,3.0,44,0.00,,,0.00,meteohub,2013-02-21 22:52:00,
2013-02-21 15:57:00,25.0,5.7,23.05,SSW,203,2.0,3.0,43,0.00,,,0.00,meteohub,2013-02-21 22:57:00,
2013-02-21 16:02:00,24.8,5.5,23.06,SW,225,2.0,3.0,43,0.00,,,0.00,meteohub,2013-02-21 23:02:00,
2013-02-21 16:07:00,24.6,5.9,23.06,South,180,2.0,3.0,44,0.00,,,0.00,meteohub,2013-02-21 23:07:00,
2013-02-21 16:12:00,24.3,5.0,23.06,South,180,2.0,3.0,43,0.00,,,0.00,meteohub,2013-02-21 23:12:00,
2013-02-21 16:17:00,24.1,5.4,23.06,SE,135,2.0,2.0,44,0.00,,,0.00,meteohub,2013-02-21 23:17:00,
2013-02-21 16:22:00,23.9,5.2,23.06,South,180,2.0,2.0,44,0.00,,,0.00,meteohub,2013-02-21 23:22:00,
2013-02-21 16:27:00,23.7,5.0,23.06,SW,225,2.0,2.0,44,0.00,,,0.00,meteohub,2013-02-21 23:27:00,
2013-02-21 16:32:00,23.7,5.0,23.06,South,180,2.0,2.0,44,0.00,,,0.00,meteohub,2013-02-21 23:32:00,
2013-02-21 16:37:00,23.5,4.3,23.06,South,180,2.0,2.0,43,0.00,,,0.00,meteohub,2013-02-21 23:37:00,
2013-02-21 16:42:00,23.5,4.3,23.06,SE,135,1.0,2.0,43,0.00,,,0.00,meteohub,2013-02-21 23:42:00,
2013-02-21 16:47:00,23.4,4.6,23.06,South,180,2.0,2.0,44,0.00,,,0.00,meteohub,2013-02-21 23:47:00,
2013-02-21 16:52:00,23.2,4.5,23.06,SE,135,2.0,2.0,44,0.00,,,0.00,meteohub,2013-02-21 23:52:00,
2013-02-21 16:57:00,23.0,4.3,23.06,South,180,2.0,2.0,44,0.00,,,0.00,meteohub,2013-02-21 23:57:00,
2013-02-21 17:02:00,22.8,4.6,23.06,South,180,1.0,2.0,45,0.00,,,0.00,meteohub,2013-02-22 00:02:00,
2013-02-21 17:07:00,22.8,4.6,23.06,South,180,1.0,2.0,45,0.00,,,0.00,meteohub,2013-02-22 00:07:00,
2013-02-21 17:12:00,22.3,4.6,23.06,SE,135,2.0,2.0,46,0.00,,,0.00,meteohub,2013-02-22 00:12:00,
2013-02-21 17:17:00,22.1,3.9,23.06,South,180,2.0,3.0,45,0.00,,,0.00,meteohub,2013-02-22 00:17:00,
2013-02-21 17:22:00,21.7,3.7,23.06,SSW,203,2.0,3.0,45,0.00,,,0.00,meteohub,2013-02-22 00:22:00,
2013-02-21 17:27:00,21.4,3.4,23.06,South,180,2.0,3.0,45,0.00,,,0.00,meteohub,2013-02-22 00:27:00,
2013-02-21 17:32:00,21.2,3.6,23.07,South,180,2.0,2.0,46,0.00,,,0.00,meteohub,2013-02-22 00:32:00,
2013-02-21 17:37:00,21.0,3.9,23.07,South,180,2.0,2.0,47,0.00,,,0.00,meteohub,2013-02-22 00:37:00,
2013-02-21 17:42:00,21.0,3.9,23.07,SSE,158,2.0,2.0,47,0.00,,,0.00,meteohub,2013-02-22 00:42:00,
2013-02-21 17:47:00,20.8,3.7,23.08,SSE,158,2.0,2.0,47,0.00,,,0.00,meteohub,2013-02-22 00:47:00,
2013-02-21 17:52:00,20.7,3.6,23.07,SW,225,2.0,2.0,47,0.00,,,0.00,meteohub,2013-02-22 00:52:00,
2013-02-21 17:57:00,20.7,3.6,23.07,South,180,2.0,2.0,47,0.00,,,0.00,meteohub,2013-02-22 00:57:00,
2013-02-21 18:02:00,20.5,4.8,23.08,South,180,1.0,2.0,50,0.00,,,0.00,meteohub,2013-02-22 01:02:00,
2013-02-21 18:07:00,20.3,5.0,23.07,South,180,1.0,2.0,51,0.00,,,0.00,meteohub,2013-02-22 01:07:00,
2013-02-21 18:12:00,20.3,5.5,23.08,South,180,1.0,2.0,52,0.00,,,0.00,meteohub,2013-02-22 01:12:00,
2013-02-21 18:17:00,20.1,6.1,23.08,SSE,158,1.0,2.0,54,0.00,,,0.00,meteohub,2013-02-22 01:17:00,
2013-02-21 18:22:00,19.8,5.4,23.08,South,180,0.0,2.0,53,0.00,,,0.00,meteohub,2013-02-22 01:22:00,
2013-02-21 18:27:00,19.6,4.8,23.08,South,180,0.0,2.0,52,0.00,,,0.00,meteohub,2013-02-22 01:27:00,
2013-02-21 18:32:00,19.0,1.6,23.08,South,180,0.0,1.0,46,0.00,,,0.00,meteohub,2013-02-22 01:32:00,
2013-02-21 18:37:00,18.9,1.6,23.08,South,180,0.0,0.0,46,0.00,,,0.00,meteohub,2013-02-22 01:37:00,
2013-02-21 18:42:00,18.3,1.0,23.08,South,180,0.0,0.0,46,0.00,,,0.00,meteohub,2013-02-22 01:42:00,
2013-02-21 18:47:00,18.0,0.7,23.08,South,180,0.0,1.0,46,0.00,,,0.00,meteohub,2013-02-22 01:47:00,
2013-02-21 18:52:00,17.6,0.9,23.08,NE,45,0.0,1.0,47,0.00,,,0.00,meteohub,2013-02-22 01:52:00,
2013-02-21 18:57:00,17.1,0.3,23.09,NE,45,0.0,1.0,47,0.00,,,0.00,meteohub,2013-02-22 01:57:00,
2013-02-21 19:02:00,16.7,0.0,23.09,North,0,2.0,2.0,47,0.00,,,0.00,meteohub,2013-02-22 02:02:00,
2013-02-21 19:07:00,16.2,-0.6,23.09,North,0,0.0,2.0,47,0.00,,,0.00,meteohub,2013-02-22 02:07:00,
2013-02-21 19:12:00,16.2,0.0,23.09,South,180,0.0,2.0,48,0.00,,,0.00,meteohub,2013-02-22 02:12:00,
2013-02-21 19:17:00,16.3,0.5,23.09,NW,315,0.0,2.0,49,0.00,,,0.00,meteohub,2013-02-22 02:17:00,
2013-02-21 19:22:00,16.2,0.0,23.10,North,0,0.0,1.0,48,0.00,,,0.00,meteohub,2013-02-22 02:22:00,
2013-02-21 19:27:00,16.0,-0.2,23.10,SW,225,0.0,2.0,48,0.00,,,0.00,meteohub,2013-02-22 02:27:00,
2013-02-21 19:32:00,15.8,-0.4,23.10,NE,45,2.0,2.0,48,0.00,,,0.00,meteohub,2013-02-22 02:32:00,
2013-02-21 19:37:00,15.8,-0.4,23.10,North,0,0.0,2.0,48,0.00,,,0.00,meteohub,2013-02-22 02:37:00,
2013-02-21 19:42:00,15.6,0.3,23.10,North,0,1.0,2.0,50,0.00,,,0.00,meteohub,2013-02-22 02:42:00,
2013-02-21 19:47:00,15.4,0.1,23.10,North,0,0.0,2.0,50,0.00,,,0.00,meteohub,2013-02-22 02:47:00,
2013-02-21 19:52:00,15.4,0.1,23.10,North,0,2.0,2.0,50,0.00,,,0.00,meteohub,2013-02-22 02:52:00,
2013-02-21 19:57:00,15.3,0.0,23.10,North,0,0.0,2.0,50,0.00,,,0.00,meteohub,2013-02-22 02:57:00,
2013-02-21 20:02:00,15.3,0.0,23.10,NE,45,2.0,2.0,50,0.00,,,0.00,meteohub,2013-02-22 03:02:00,
2013-02-21 20:07:00,14.9,-0.4,23.11,SW,225,0.0,2.0,50,0.00,,,0.00,meteohub,2013-02-22 03:07:00,
2013-02-21 20:12:00,14.9,-0.4,23.10,SW,225,0.0,2.0,50,0.00,,,0.00,meteohub,2013-02-22 03:12:00,
2013-02-21 20:17:00,15.1,0.1,23.11,NW,315,0.0,2.0,51,0.00,,,0.00,meteohub,2013-02-22 03:17:00,
2013-02-21 20:22:00,15.3,0.3,23.11,SW,225,0.0,1.0,51,0.00,,,0.00,meteohub,2013-02-22 03:22:00,
2013-02-21 20:27:00,15.4,0.5,23.11,NE,45,2.0,2.0,51,0.00,,,0.00,meteohub,2013-02-22 03:27:00,
2013-02-21 20:32:00,15.4,0.5,23.11,NW,315,2.0,2.0,51,0.00,,,0.00,meteohub,2013-02-22 03:32:00,
2013-02-21 20:37:00,15.4,0.5,23.11,NE,45,1.0,3.0,51,0.00,,,0.00,meteohub,2013-02-22 03:37:00,
2013-02-21 20:42:00,15.4,1.0,23.11,SW,225,0.0,3.0,52,0.00,,,0.00,meteohub,2013-02-22 03:42:00,
2013-02-21 20:47:00,15.8,1.2,23.11,SW,225,2.0,3.0,52,0.00,,,0.00,meteohub,2013-02-22 03:47:00,
2013-02-21 20:52:00,16.0,1.9,23.11,East,90,0.0,2.0,53,0.00,,,0.00,meteohub,2013-02-22 03:52:00,
2013-02-21 20:57:00,16.2,2.1,23.11,SW,225,1.0,2.0,53,0.00,,,0.00,meteohub,2013-02-22 03:57:00,
2013-02-21 21:02:00,16.3,1.8,23.11,WSW,248,1.0,2.0,52,0.00,,,0.00,meteohub,2013-02-22 04:02:00,
2013-02-21 21:07:00,16.3,1.8,23.11,South,180,0.0,2.0,52,0.00,,,0.00,meteohub,2013-02-22 04:07:00,
2013-02-21 21:12:00,16.2,1.6,23.11,South,180,0.0,2.0,52,0.00,,,0.00,meteohub,2013-02-22 04:12:00,
2013-02-21 21:17:00,16.0,1.4,23.12,NE,45,1.0,2.0,52,0.00,,,0.00,meteohub,2013-02-22 04:17:00,
2013-02-21 21:23:00,15.4,1.4,23.11,East,90,0.0,2.0,53,0.00,,,0.00,meteohub,2013-02-22 04:23:00,
2013-02-21 21:28:00,15.3,1.2,23.12,East,90,0.0,2.0,53,0.00,,,0.00,meteohub,2013-02-22 04:28:00,
2013-02-21 21:33:00,15.1,1.0,23.12,South,180,0.0,1.0,53,0.00,,,0.00,meteohub,2013-02-22 04:33:00,
2013-02-21 21:38:00,14.9,0.9,23.11,NE,45,0.0,0.0,53,0.00,,,0.00,meteohub,2013-02-22 04:38:00,
2013-02-21 21:43:00,14.7,0.7,23.11,NE,45,0.0,0.0,53,0.00,,,0.00,meteohub,2013-02-22 04:43:00,
2013-02-21 21:48:00,14.4,0.3,23.12,NE,45,2.0,0.0,53,0.00,,,0.00,meteohub,2013-02-22 04:48:00,
2013-02-21 21:53:00,14.0,-0.4,23.12,NNE,23,2.0,2.0,52,0.00,,,0.00,meteohub,2013-02-22 04:53:00,
2013-02-21 21:58:00,13.5,-0.4,23.12,North,0,2.0,2.0,53,0.00,,,0.00,meteohub,2013-02-22 04:58:00,
2013-02-21 22:00:00,13.3,-0.6,23.12,North,0,0.0,2.0,53,0.00,,,0.00,meteohub,2013-02-22 05:00:00,
2013-02-21 22:01:00,13.3,-0.6,23.12,North,0,0.0,2.0,53,0.00,,,0.00,meteohub,2013-02-22 05:01:00,
2013-02-21 22:03:00,13.1,-0.8,23.12,North,0,2.0,2.0,53,0.00,,,0.00,meteohub,2013-02-22 05:03:00,
2013-02-21 22:09:00,12.9,-0.9,23.12,North,0,0.0,2.0,53,0.00,,,0.00,meteohub,2013-02-22 05:09:00,
2013-02-21 22:14:00,12.7,-0.8,23.12,West,270,1.0,2.0,54,0.00,,,0.00,meteohub,2013-02-22 05:14:00,
2013-02-21 22:19:00,12.9,-0.6,23.11,NW,315,0.0,2.0,54,0.00,,,0.00,meteohub,2013-02-22 05:19:00,
2013-02-21 22:24:00,13.1,-0.4,23.12,SE,135,0.0,2.0,54,0.00,,,0.00,meteohub,2013-02-22 05:24:00,
2013-02-21 22:29:00,12.9,-0.6,23.12,NE,45,0.0,2.0,54,0.00,,,0.00,meteohub,2013-02-22 05:29:00,
2013-02-21 22:34:00,12.7,-1.1,23.11,NE,45,0.0,2.0,53,0.00,,,0.00,meteohub,2013-02-22 05:34:00,
2013-02-21 22:39:00,12.7,-1.1,23.12,NE,45,0.0,2.0,53,0.00,,,0.00,meteohub,2013-02-22 05:39:00,
2013-02-21 22:44:00,12.6,-1.3,23.12,North,0,2.0,2.0,53,0.00,,,0.00,meteohub,2013-02-22 05:44:00,
2013-02-21 22:49:00,12.4,-1.1,23.12,NE,45,0.0,2.0,54,0.00,,,0.00,meteohub,2013-02-22 05:49:00,
2013-02-21 22:54:00,12.2,-1.3,23.12,NE,45,0.0,3.0,54,0.00,,,0.00,meteohub,2013-02-22 05:54:00,
2013-02-21 23:00:00,12.0,-1.1,23.12,NNE,23,3.0,3.0,55,0.00,,,0.00,meteohub,2013-02-22 06:00:00,
2013-02-21 23:05:00,11.5,-1.5,23.12,North,0,0.0,3.0,55,0.00,,,0.00,meteohub,2013-02-22 06:05:00,
2013-02-21 23:10:00,11.1,-1.8,23.12,North,0,1.0,3.0,55,0.00,,,0.00,meteohub,2013-02-22 06:10:00,
2013-02-21 23:15:00,10.9,-2.0,23.12,NE,45,0.0,3.0,55,0.00,,,0.00,meteohub,2013-02-22 06:15:00,
2013-02-21 23:20:00,10.8,-2.2,23.12,NE,45,0.0,2.0,55,0.00,,,0.00,meteohub,2013-02-22 06:20:00,
2013-02-21 23:25:00,10.8,-2.2,23.12,NE,45,0.0,2.0,55,0.00,,,0.00,meteohub,2013-02-22 06:25:00,
2013-02-21 23:30:00,10.8,-2.2,23.12,NE,45,2.0,2.0,55,0.00,,,0.00,meteohub,2013-02-22 06:30:00,
2013-02-21 23:35:00,10.6,-2.4,23.12,NE,45,0.0,3.0,55,0.00,,,0.00,meteohub,2013-02-22 06:35:00,
2013-02-21 23:40:00,10.6,-2.4,23.12,North,0,1.0,3.0,55,0.00,,,0.00,meteohub,2013-02-22 06:40:00,
2013-02-21 23:45:00,10.8,-2.2,23.12,North,0,0.0,3.0,55,0.00,,,0.00,meteohub,2013-02-22 06:45:00,
2013-02-21 23:50:00,10.9,-2.0,23.12,NE,45,0.0,2.0,55,0.00,,,0.00,meteohub,2013-02-22 06:50:00,
2013-02-21 23:56:00,10.8,-2.2,23.13,West,270,0.0,2.0,55,0.00,,,0.00,meteohub,2013-02-22 06:56:00,